Impacts METAR Board
IDs:

KMIA - Miami Intl, FL, US

Updated at: 0900 UTC 19 Jul 2018
Potential Impact None Slight Moderate High
Time 18/21Z 18/22Z 18/23Z 19/00Z 19/01Z 19/02Z 19/03Z 19/04Z 19/05Z 19/06Z 19/07Z 19/08Z 19/09Z
Temp76 79 84 83 82 81 82 81 81 83 81 80 79
Dewpt73 75 76 75 77 77 77 76 76 76 76 76 76
Altim30.04 30.02 30.01 30.01 30.01 30.03 30.03 30.03 30.03 30.02 30.01 30.01 30.00
VIS7 10 10 10 10 10 10 10 10 10 10 10 10
CIG40 130 250 250 -- -- -- -- -- -- -- -- --
CoverBKNOVCOVCBKNSCTSCTSCTSCTSCTSCTFEWFEWFEW
FltCatVFRVFRVFRVFRVFRVFRVFRVFRVFRVFRVFRVFRVFR
WX+TSRA------------------------
WDir3008001702201602000230240210210200
WSpd7 4 0 4 5 4 4 3 3 5 5 4 4
WGst20 -- -- -- -- -- -- -- -- -- -- -- --
Raw hourly METARs
KMIA 182053Z 30007G20KT 7SM +TSRA BKN040CB BKN065 BKN250 24/23 A3004 RMK AO2 WSHFT 2030 LTG DSNT NW RAB29 TSB28 SLP172 OCNL LTGICCG AT AP SW-NW-N TS AT AP SW-NW-N MOV STNRY P0001 60001 T02440228 51007
KMIA 182153Z 08004KT 10SM SCT042 SCT060 BKN130 OVC250 26/24 A3002 RMK AO2 RAE47 TSE20B21E40 SLP165 TS DSIPTD P0040 T02610239
KMIA 182253Z 00000KT 10SM FEW040 SCT080 SCT130 OVC250 29/24 A3001 RMK AO2 LTG DSNT S AND SW SLP163 CB DSNT S AND W T02890244
KMIA 182353Z 17004KT 10SM FEW035 SCT080 SCT100 BKN250 28/24 A3001 RMK AO2 SLP161 60041 T02830239 10339 20244 56011
KMIA 190053Z 22005KT 10SM FEW032 FEW080 SCT250 28/25 A3001 RMK AO2 SLP163 T02780250
KMIA 190153Z 16004KT 10SM FEW032 FEW080 SCT250 27/25 A3003 RMK AO2 SLP168 T02720250
KMIA 190253Z 20004KT 10SM SCT250 28/25 A3003 RMK AO2 SLP170 T02780250 52009
KMIA 190353Z VRB03KT 10SM FEW050 SCT250 27/24 A3003 RMK AO2 SLP169 T02720244
KMIA 190453Z 23003KT 10SM FEW050 SCT250 27/24 A3003 RMK AO2 SLP168 T02720244 403390244
KMIA 190553Z 24005KT 10SM SCT250 28/24 A3002 RMK AO2 SLP165 T02830244 10283 20272 58005
KMIA 190653Z 21005KT 10SM FEW050 FEW250 27/24 A3001 RMK AO2 SLP163 T02720244
KMIA 190753Z 21004KT 10SM FEW050 FEW250 27/24 A3001 RMK AO2 SLP161 T02670244
KMIA 190853Z 20004KT 10SM FEW025 FEW250 26/24 A3000 RMK AO2 SLP158 T02610244 58007



Page loaded:  09:48 UTC  |   02:48 AM Pacific  |   03:48 AM Mountain  |   04:48 AM Central  |   05:48 AM Eastern

 

ADVISORIES

FORECASTS

FORECASTS

OBSERVATIONS

USER TOOLS

ABOUT US